Terminal Aerodrome Forecast
Issued by NWS Wilmington, OH

Current Version | Previous Version | Text Only | Print | Product List | Glossary Off
Versions: 1 2 3 4 5 6 7 8 9 10 11 12 13 14 15 16 17 18

000
FTUS41 KILN 251100
TAFILN
TAF
KILN 251139Z 2512/2612 19007KT 5SM BR SCT120
     FM251400 16007KT P6SM BKN070 OVC100
     FM251600 13007KT P6SM VCSH SCT020 OVC060
     FM251800 10007KT P6SM -RA SCT015 OVC040
     FM252000 08007KT 5SM -RA OVC015
     FM260000 05009KT 3SM -RA OVC005
     FM260200 03012G20KT 1SM -SN OVC004
      TEMPO 2602/2604 1/2SM SN
     FM260400 02014G22KT 2SM -SN OVC015
     FM260600 36014G22KT 3SM -SN OVC022=

USA.gov is the U.S. government's official web portal to all federal, state and local government web resources and services.